Time;durP1;ratioP1;P1;durP2;ratioP2;P2;SDS_P1;SDS_P2;PMS_P1;PMS_P2;Temp;Humidity;BMP_temperature;BMP_pressure;BME280_temperature;BME280_humidity;BME280_pressure;Samples;Min_cycle;Max_cycle;Signal;HPM_P1;HPM_P2
2023/09/22 00:00:43;;;;;;;8.07;6.70;;;;;;;14.11;89.56;99632.19;3593152;39;20090;-66
2023/09/22 00:03:10;;;;;;;8.10;6.90;;;;;;;14.07;89.75;99611.81;3595284;39;20090;-67
2023/09/22 00:05:36;;;;;;;7.72;6.50;;;;;;;13.94;90.11;99604.03;3595833;39;20130;-68
2023/09/22 00:08:04;;;;;;;6.75;6.15;;;;;;;14.03;90.50;99623.94;3596284;39;20083;-66
2023/09/22 00:10:30;;;;;;;8.25;6.45;;;;;;;14.01;90.86;99623.22;3593593;39;20109;-67
2023/09/22 00:12:56;;;;;;;7.80;6.28;;;;;;;13.97;90.38;99624.53;3594727;39;20059;-68
2023/09/22 00:15:22;;;;;;;8.18;6.63;;;;;;;13.81;90.56;99597.25;3597120;39;20058;-68
2023/09/22 00:17:48;;;;;;;8.15;6.38;;;;;;;13.92;90.62;99621.38;3596508;39;20060;-68
2023/09/22 00:20:15;;;;;;;7.65;6.20;;;;;;;13.93;90.70;99620.41;3594865;39;20052;-67
2023/09/22 00:22:43;;;;;;;8.45;6.10;;;;;;;13.80;90.97;99617.19;3594766;39;20399;-68
2023/09/22 00:25:09;;;;;;;8.85;6.72;;;;;;;13.84;91.00;99621.28;3598631;39;20142;-67
2023/09/22 00:27:35;;;;;;;9.23;6.65;;;;;;;13.80;91.86;99628.00;3597727;39;20410;-67
2023/09/22 00:30:02;;;;;;;8.95;6.47;;;;;;;13.76;91.63;99631.94;3595959;39;20060;-67
2023/09/22 00:32:29;;;;;;;9.73;6.93;;;;;;;13.69;92.29;99620.88;3591876;39;20073;-67
2023/09/22 00:34:54;;;;;;;8.73;6.90;;;;;;;13.70;92.20;99638.78;3584297;40;20121;-67
2023/09/22 00:37:21;;;;;;;10.75;7.32;;;;;;;13.66;92.70;99640.06;3593796;39;20055;-66
2023/09/22 00:39:47;;;;;;;10.52;7.72;;;;;;;13.63;92.88;99643.91;3594471;39;20051;-68
2023/09/22 00:42:12;;;;;;;11.57;8.05;;;;;;;13.62;93.84;99631.41;3595035;39;20108;-68
2023/09/22 00:44:38;;;;;;;9.60;8.10;;;;;;;13.64;94.32;99636.69;3594942;39;20199;-69
2023/09/22 00:47:12;;;;;;;12.10;8.73;;;;;;;13.63;94.48;99633.09;3594967;39;20055;-67
2023/09/22 00:49:37;;;;;;;13.45;8.77;;;;;;;13.63;94.14;99627.69;3596575;39;20309;-67
2023/09/22 00:52:03;;;;;;;10.57;8.25;;;;;;;13.62;94.14;99615.19;3594630;39;20047;-68
2023/09/22 00:54:31;;;;;;;13.82;9.27;;;;;;;13.22;93.97;99546.03;3593600;39;20617;-68
2023/09/22 00:56:57;;;;;;;12.82;8.63;;;;;;;13.22;94.28;99542.47;3596235;39;20056;-68
2023/09/22 00:59:24;;;;;;;11.07;8.52;;;;;;;13.59;94.54;99614.66;3593557;39;20055;-68
2023/09/22 01:01:49;;;;;;;12.90;8.85;;;;;;;13.58;94.99;99611.09;3598744;39;20055;-67
2023/09/22 01:04:16;;;;;;;18.02;13.18;;;;;;;13.56;94.84;99620.34;3597740;39;20058;-68
2023/09/22 01:06:46;;;;;;;16.13;10.50;;;;;;;13.53;94.71;99634.97;3599226;39;20334;-67
2023/09/22 01:09:14;;;;;;;15.45;8.85;;;;;;;13.37;94.89;99602.28;3593679;39;20056;-68
2023/09/22 01:11:40;;;;;;;11.48;8.88;;;;;;;13.49;94.70;99620.06;3584902;39;20076;-67
2023/09/22 01:14:06;;;;;;;14.88;8.82;;;;;;;13.49;94.96;99611.09;3595876;39;20398;-67
2023/09/22 01:16:31;;;;;;;12.52;9.30;;;;;;;13.44;94.94;99616.91;3595110;39;20399;-67
2023/09/22 01:18:58;;;;;;;15.18;9.07;;;;;;;13.21;95.31;99582.09;3598008;39;20055;-68
2023/09/22 01:21:33;;;;;;;12.10;9.55;;;;;;;13.40;95.70;99626.31;3596911;39;20051;-68
2023/09/22 01:23:59;;;;;;;13.77;9.70;;;;;;;13.40;95.58;99612.81;3596674;39;20075;-67
2023/09/22 01:26:25;;;;;;;13.90;9.57;;;;;;;13.38;95.79;99612.09;3593223;39;20298;-68
2023/09/22 01:28:50;;;;;;;12.00;9.43;;;;;;;13.35;95.53;99607.84;3593306;39;20508;-67
2023/09/22 01:31:16;;;;;;;12.70;9.38;;;;;;;13.36;95.73;99603.31;3591741;39;20306;-66
2023/09/22 01:33:44;;;;;;;19.50;10.00;;;;;;;12.95;95.72;99530.56;3595024;39;20063;-67
2023/09/22 01:36:11;;;;;;;14.82;10.27;;;;;;;13.34;96.18;99598.03;3585614;39;20060;-68
2023/09/22 01:38:36;;;;;;;14.50;9.90;;;;;;;13.32;96.74;99604.56;3594754;39;20420;-68
2023/09/22 01:41:02;;;;;;;13.93;10.35;;;;;;;12.74;96.60;99506.41;3592296;39;20055;-67
2023/09/22 01:43:28;;;;;;;15.95;10.00;;;;;;;13.20;96.57;99583.09;3597259;39;20063;-68
2023/09/22 01:45:53;;;;;;;14.80;10.13;;;;;;;13.33;96.64;99603.59;3587933;39;20048;-67
2023/09/22 01:48:19;;;;;;;14.75;10.38;;;;;;;13.35;96.87;99598.88;3593340;39;20051;-68
2023/09/22 01:50:45;;;;;;;15.30;10.77;;;;;;;13.36;97.22;99614.09;3595890;39;20364;-68
2023/09/22 01:53:11;;;;;;;13.18;9.32;;;;;;;13.38;97.39;99618.38;3592780;39;20071;-67
2023/09/22 01:55:39;;;;;;;14.93;10.23;;;;;;;13.36;97.55;99620.34;3595751;39;20058;-68
2023/09/22 01:58:07;;;;;;;21.05;10.52;;;;;;;13.32;97.34;99604.56;3596788;39;20083;-67
2023/09/22 02:00:35;;;;;;;14.95;10.48;;;;;;;13.36;97.93;99604.16;3597038;39;20059;-67
2023/09/22 02:03:01;;;;;;;15.98;9.65;;;;;;;13.37;97.48;99602.28;3595217;39;20162;-68
2023/09/22 02:05:27;;;;;;;15.48;9.82;;;;;;;13.21;97.48;99584.78;3594467;39;20378;-67
2023/09/22 02:07:53;;;;;;;12.18;9.27;;;;;;;13.34;98.04;99606.13;3594107;39;20060;-67
2023/09/22 02:10:19;;;;;;;14.18;10.25;;;;;;;13.34;97.69;99600.72;3593828;39;20058;-68
2023/09/22 02:12:45;;;;;;;16.38;9.32;;;;;;;13.34;98.23;99599.88;3593223;39;20078;-68
2023/09/22 02:15:13;;;;;;;14.60;10.35;;;;;;;13.36;98.20;99606.00;3595118;39;20059;-66
2023/09/22 02:17:41;;;;;;;16.23;9.85;;;;;;;13.35;97.94;99607.84;3598124;39;20051;-68
2023/09/22 02:20:22;;;;;;;13.85;9.88;;;;;;;13.36;98.00;99614.09;3598976;39;20055;-67
2023/09/22 02:22:55;;;;;;;17.65;10.63;;;;;;;13.37;98.35;99610.41;3593253;39;20047;-68
2023/09/22 02:25:22;;;;;;;15.45;10.15;;;;;;;13.38;98.43;99612.09;3594295;39;20096;-67
2023/09/22 02:27:52;;;;;;;14.73;10.02;;;;;;;13.41;98.22;99617.22;3594035;39;20050;-68
2023/09/22 02:30:18;;;;;;;14.75;10.65;;;;;;;13.42;98.47;99625.19;3592635;39;20064;-67
2023/09/22 02:32:49;;;;;;;14.88;10.52;;;;;;;13.44;98.40;99608.81;3592928;39;20055;-68
2023/09/22 02:35:21;;;;;;;16.85;10.57;;;;;;;13.43;98.69;99601.72;3592794;39;20129;-70
2023/09/22 02:37:47;;;;;;;13.65;10.45;;;;;;;13.47;98.38;99601.28;3594688;39;20070;-68
2023/09/22 02:40:16;;;;;;;14.23;9.93;;;;;;;13.50;98.27;99602.84;3593018;39;20052;-68
2023/09/22 02:42:44;;;;;;;14.32;11.13;;;;;;;13.44;98.10;99592.63;3595318;39;20417;-68
2023/09/22 02:45:10;;;;;;;14.32;10.48;;;;;;;13.52;97.77;99608.13;3593508;39;20051;-68
2023/09/22 02:47:40;;;;;;;14.13;9.95;;;;;;;13.53;98.60;99604.41;3596603;39;20055;-68
2023/09/22 02:50:12;;;;;;;13.88;10.13;;;;;;;13.51;98.13;99609.09;3594414;39;20314;-67
2023/09/22 02:52:38;;;;;;;16.10;9.63;;;;;;;13.51;98.11;99615.38;3591988;39;20086;-68
2023/09/22 02:55:09;;;;;;;13.25;9.68;;;;;;;13.46;98.59;99599.59;3596389;39;20356;-67
2023/09/22 02:57:38;;;;;;;14.15;9.48;;;;;;;13.55;98.13;99614.09;3582121;39;20361;-69
2023/09/22 03:00:12;;;;;;;12.70;9.15;;;;;;;13.55;97.90;99602.44;3594273;39;20059;-68
2023/09/22 03:02:38;;;;;;;15.73;9.95;;;;;;;13.41;97.92;99582.97;3594822;39;20091;-67
2023/09/22 03:05:09;;;;;;;15.95;9.35;;;;;;;13.56;97.38;99614.94;3591859;39;20057;-67
2023/09/22 03:07:35;;;;;;;11.75;8.93;;;;;;;13.57;97.58;99611.22;3591637;39;20044;-69
2023/09/22 03:10:05;;;;;;;13.95;8.60;;;;;;;13.54;97.90;99612.38;3593406;39;20059;-68
2023/09/22 03:12:30;;;;;;;11.73;8.40;;;;;;;13.53;97.85;99613.38;3591720;39;20176;-68
2023/09/22 03:14:56;;;;;;;10.65;8.25;;;;;;;13.52;98.10;99614.38;3592350;39;20048;-67
2023/09/22 03:17:21;;;;;;;12.40;7.85;;;;;;;13.54;98.22;99617.78;3592311;39;20051;-67
2023/09/22 03:19:47;;;;;;;11.45;8.65;;;;;;;13.55;98.04;99619.47;3591235;39;20142;-68
2023/09/22 03:22:13;;;;;;;11.30;8.05;;;;;;;13.40;97.75;99588.53;3592506;39;20054;-68
2023/09/22 03:24:38;;;;;;;10.70;7.03;;;;;;;13.42;97.93;99594.63;3586265;39;20059;-68
2023/09/22 03:27:04;;;;;;;11.25;7.30;;;;;;;13.53;97.91;99610.66;3593690;39;20382;-68
2023/09/22 03:29:30;;;;;;;10.48;6.93;;;;;;;13.60;97.61;99614.47;3593535;39;20131;-67
2023/09/22 03:31:55;;;;;;;9.73;6.90;;;;;;;13.62;98.00;99611.66;3591098;39;20048;-68
2023/09/22 03:34:21;;;;;;;8.25;6.82;;;;;;;13.63;97.78;99622.31;3590441;39;20056;-68
2023/09/22 03:36:49;;;;;;;11.93;6.57;;;;;;;13.31;97.50;99562.38;3591022;39;20067;-68
2023/09/22 03:39:15;;;;;;;10.45;6.63;;;;;;;13.68;97.89;99625.44;3590868;39;20124;-68
2023/09/22 03:41:42;;;;;;;8.30;5.80;;;;;;;13.54;97.75;99601.59;3592829;39;20056;-68
2023/09/22 03:44:08;;;;;;;8.80;5.72;;;;;;;13.54;97.39;99598.00;3591909;39;20382;-70
2023/09/22 03:46:33;;;;;;;6.75;5.60;;;;;;;13.76;98.04;99626.56;3589710;39;20048;-69
2023/09/22 03:48:59;;;;;;;8.82;5.90;;;;;;;13.76;97.22;99622.00;3594355;39;20082;-69
2023/09/22 03:51:25;;;;;;;11.00;5.63;;;;;;;13.78;97.30;99624.56;3595268;39;20063;-69
2023/09/22 03:53:50;;;;;;;8.23;5.28;;;;;;;13.76;97.30;99615.75;3591396;39;20062;-69
2023/09/22 03:56:16;;;;;;;6.93;4.75;;;;;;;13.64;96.97;99606.97;3591319;39;20048;-69
2023/09/22 03:58:42;;;;;;;7.43;4.93;;;;;;;13.66;97.18;99611.22;3591259;39;20307;-68
2023/09/22 04:01:09;;;;;;;8.98;4.55;;;;;;;13.77;97.26;99633.69;3594814;39;20052;-69
2023/09/22 04:03:36;;;;;;;12.85;4.47;;;;;;;13.79;97.16;99634.38;3578614;39;20056;-68
2023/09/22 04:06:05;;;;;;;6.72;4.43;;;;;;;13.82;97.67;99629.53;3592620;39;20094;-69
2023/09/22 04:08:31;;;;;;;6.97;4.20;;;;;;;13.85;97.39;99636.50;3592763;39;20109;-69
2023/09/22 04:10:57;;;;;;;8.82;4.03;;;;;;;13.88;97.33;99631.66;3594087;39;20080;-69
2023/09/22 04:13:24;;;;;;;7.60;3.95;;;;;;;13.89;96.40;99627.09;3595828;39;20066;-70
2023/09/22 04:16:00;;;;;;;5.47;3.63;;;;;;;13.91;96.44;99635.91;3596481;39;20043;-70
2023/09/22 04:18:29;;;;;;;8.93;4.20;;;;;;;13.79;95.98;99616.31;3595544;39;20063;-69
2023/09/22 04:21:01;;;;;;;7.43;3.58;;;;;;;13.70;96.55;99596.44;3592420;39;20060;-70
2023/09/22 04:23:28;;;;;;;6.15;3.55;;;;;;;13.88;95.70;99636.19;3592600;39;20142;-69
2023/09/22 04:25:59;;;;;;;5.72;3.40;;;;;;;13.84;95.47;99641.03;3595235;39;20601;-69
2023/09/22 04:28:25;;;;;;;4.90;3.33;;;;;;;13.83;95.71;99649.31;3592751;39;20086;-69
2023/09/22 04:30:53;;;;;;;7.15;3.65;;;;;;;13.81;95.62;99643.19;3594041;39;20422;-69
2023/09/22 04:33:20;;;;;;;5.03;3.92;;;;;;;13.64;95.64;99624.03;3594032;39;20058;-69
2023/09/22 04:35:48;;;;;;;6.65;3.60;;;;;;;13.76;96.07;99640.06;3595637;39;20058;-69
2023/09/22 04:38:14;;;;;;;8.43;3.70;;;;;;;13.72;96.03;99641.34;3593815;39;20070;-69
2023/09/22 04:40:40;;;;;;;5.90;3.33;;;;;;;13.70;96.64;99647.75;3592569;39;20088;-69
2023/09/22 04:43:11;;;;;;;4.97;3.60;;;;;;;13.69;96.57;99648.72;3591748;39;20062;-68
2023/09/22 04:45:45;;;;;;;5.72;3.50;;;;;;;13.67;96.44;99641.78;3594772;39;20129;-69
2023/09/22 04:48:11;;;;;;;4.90;3.17;;;;;;;13.64;95.87;99640.22;3594497;39;20063;-69
2023/09/22 04:50:38;;;;;;;6.93;3.40;;;;;;;13.61;96.29;99645.06;3595685;39;20067;-70
2023/09/22 04:53:05;;;;;;;3.50;3.20;;;;;;;13.60;96.14;99646.88;3582910;39;20318;-69
2023/09/22 04:55:35;;;;;;;5.03;3.08;;;;;;;13.58;96.93;99648.06;3593031;39;20063;-69
2023/09/22 04:58:08;;;;;;;5.43;3.20;;;;;;;13.58;96.92;99645.34;3595919;39;20406;-69
2023/09/22 05:00:34;;;;;;;5.55;3.20;;;;;;;13.55;96.50;99646.47;3592223;39;20642;-69
2023/09/22 05:03:01;;;;;;;4.18;3.28;;;;;;;13.47;96.81;99638.22;3592150;39;20055;-69
2023/09/22 05:05:28;;;;;;;5.78;3.15;;;;;;;13.45;97.30;99640.25;3592940;39;20490;-69
2023/09/22 05:07:54;;;;;;;7.63;3.15;;;;;;;13.53;97.25;99647.63;3593220;39;20051;-70
2023/09/22 05:10:20;;;;;;;3.75;3.33;;;;;;;13.01;96.83;99572.31;3593091;39;20047;-69
2023/09/22 05:12:46;;;;;;;5.18;3.20;;;;;;;13.50;96.72;99658.69;3593615;39;20063;-68
2023/09/22 05:15:11;;;;;;;4.13;3.10;;;;;;;13.36;97.34;99635.69;3593213;39;20074;-69
2023/09/22 05:17:37;;;;;;;5.85;3.30;;;;;;;13.46;96.96;99669.78;3585650;39;20054;-69
2023/09/22 05:20:11;;;;;;;6.40;3.15;;;;;;;13.47;97.65;99670.63;3592693;39;20056;-69
2023/09/22 05:22:38;;;;;;;5.20;2.95;;;;;;;13.44;97.53;99677.16;3594202;39;20100;-69
2023/09/22 05:25:05;;;;;;;5.90;3.13;;;;;;;13.17;97.52;99634.66;3592297;39;20060;-69
2023/09/22 05:27:31;;;;;;;3.10;2.78;;;;;;;13.43;97.63;99680.88;3593014;39;20055;-69
2023/09/22 05:29:57;;;;;;;7.82;3.13;;;;;;;13.43;97.89;99675.47;3594696;39;21956;-69
2023/09/22 05:32:23;;;;;;;4.55;2.83;;;;;;;13.42;97.58;99681.88;3591734;39;20071;-69
2023/09/22 05:34:51;;;;;;;4.10;3.03;;;;;;;13.43;97.97;99680.00;3592933;39;20043;-68
2023/09/22 05:37:19;;;;;;;6.68;3.05;;;;;;;13.17;97.77;99647.28;3591349;39;20129;-69
2023/09/22 05:39:44;;;;;;;5.57;2.85;;;;;;;13.42;97.61;99687.25;3591534;39;20062;-68
2023/09/22 05:42:11;;;;;;;4.57;2.63;;;;;;;13.43;97.35;99696.22;3591496;39;20052;-70
2023/09/22 05:44:37;;;;;;;4.40;2.70;;;;;;;13.40;97.68;99697.34;3593002;39;20051;-69
2023/09/22 05:47:04;;;;;;;5.90;2.85;;;;;;;13.42;97.15;99705.31;3593502;39;20068;-69
2023/09/22 05:49:30;;;;;;;3.45;2.90;;;;;;;13.36;97.87;99697.78;3590489;39;20345;-69
2023/09/22 05:51:55;;;;;;;5.20;3.00;;;;;;;13.43;97.93;99701.63;3590863;39;20059;-69
2023/09/22 05:54:21;;;;;;;6.03;3.25;;;;;;;13.31;97.21;99675.75;3592021;39;20169;-69
2023/09/22 05:56:47;;;;;;;4.43;2.50;;;;;;;13.43;97.35;99696.22;3593390;39;20316;-68
2023/09/22 05:59:14;;;;;;;3.38;2.85;;;;;;;13.45;96.90;99699.63;3593174;39;20063;-69
2023/09/22 06:01:39;;;;;;;4.13;3.00;;;;;;;13.40;96.91;99701.88;3591603;39;20048;-69
2023/09/22 06:04:06;;;;;;;3.92;2.60;;;;;;;13.44;97.72;99719.50;3591674;39;20059;-69
2023/09/22 06:06:32;;;;;;;6.53;2.88;;;;;;;13.45;97.27;99721.22;3592386;39;20445;-70
2023/09/22 06:08:59;;;;;;;5.85;2.97;;;;;;;13.47;97.59;99724.63;3590702;39;20067;-69
2023/09/22 06:11:28;;;;;;;3.20;2.50;;;;;;;13.40;97.78;99724.34;3583318;39;20349;-68
2023/09/22 06:13:54;;;;;;;5.03;3.25;;;;;;;13.50;97.35;99735.13;3593316;39;20121;-69
2023/09/22 06:16:20;;;;;;;3.75;2.40;;;;;;;13.52;97.40;99726.91;3592951;39;20374;-70
2023/09/22 06:18:45;;;;;;;3.17;2.38;;;;;;;13.52;97.10;99727.78;3594080;39;20057;-69
2023/09/22 06:21:11;;;;;;;12.68;8.35;;;;;;;13.54;97.25;99725.78;3593232;39;20296;-69
2023/09/22 06:23:40;;;;;;;8.48;4.75;;;;;;;13.14;97.29;99653.81;3591101;39;20067;-68
2023/09/22 06:26:10;;;;;;;4.68;2.75;;;;;;;13.59;97.21;99731.59;3596282;39;20047;-68
2023/09/22 06:28:39;;;;;;;6.15;2.53;;;;;;;13.61;96.95;99735.03;3592392;39;20047;-69
2023/09/22 06:31:05;;;;;;;8.95;2.75;;;;;;;13.66;97.31;99740.84;3593324;39;20063;-69
2023/09/22 06:33:32;;;;;;;3.17;2.10;;;;;;;13.69;97.08;99745.94;3593031;39;20437;-68
2023/09/22 06:36:02;;;;;;;5.20;2.90;;;;;;;13.72;96.68;99738.56;3591473;39;20402;-69
2023/09/22 06:38:28;;;;;;;5.93;2.60;;;;;;;13.79;96.43;99747.81;3583620;39;20056;-69
2023/09/22 06:40:55;;;;;;;5.43;2.47;;;;;;;13.81;95.85;99748.53;3593774;39;20055;-69
2023/09/22 06:43:26;;;;;;;2.88;2.33;;;;;;;13.86;95.33;99751.63;3591388;39;20062;-69
2023/09/22 06:45:53;;;;;;;4.32;2.08;;;;;;;13.89;95.31;99756.75;3592831;39;20054;-70
2023/09/22 06:48:25;;;;;;;4.82;2.58;;;;;;;13.92;94.38;99765.47;3591520;39;20095;-69
2023/09/22 06:50:53;;;;;;;3.65;2.17;;;;;;;13.98;94.33;99766.72;3592501;39;20405;-68
2023/09/22 06:53:21;;;;;;;4.85;2.55;;;;;;;14.01;93.88;99766.44;3592231;39;20044;-69
2023/09/22 06:55:48;;;;;;;3.45;2.30;;;;;;;14.05;93.86;99762.47;3588705;39;20124;-69
2023/09/22 06:58:13;;;;;;;5.55;2.15;;;;;;;13.93;93.82;99732.03;3593037;39;20059;-68
2023/09/22 07:00:39;;;;;;;2.85;2.10;;;;;;;14.16;93.10;99762.31;3593719;39;20110;-68
2023/09/22 07:03:05;;;;;;;3.20;1.95;;;;;;;14.14;92.26;99767.00;3592082;39;20540;-69
2023/09/22 07:05:31;;;;;;;4.75;2.03;;;;;;;14.27;92.23;99772.13;3591808;39;20409;-70
2023/09/22 07:07:57;;;;;;;4.90;2.10;;;;;;;14.38;91.98;99768.38;3590216;39;20064;-68
2023/09/22 07:10:24;;;;;;;4.95;1.50;;;;;;;14.19;90.63;99736.84;3590887;39;20456;-69
2023/09/22 07:12:50;;;;;;;6.60;2.00;;;;;;;14.48;90.21;99773.78;3583977;39;20067;-69
2023/09/22 07:15:17;;;;;;;2.70;1.70;;;;;;;14.57;90.40;99784.59;3591523;39;20067;-68
2023/09/22 07:17:44;;;;;;;2.80;1.73;;;;;;;14.66;88.50;99788.28;3594276;39;20360;-69
2023/09/22 07:20:14;;;;;;;4.65;1.50;;;;;;;14.77;87.72;99773.72;3591146;39;20067;-68
2023/09/22 07:22:42;;;;;;;2.20;1.45;;;;;;;14.89;86.72;99783.38;3591804;39;20052;-70
2023/09/22 07:25:08;;;;;;;2.47;1.20;;;;;;;14.99;85.75;99784.16;3591302;39;20280;-69
2023/09/22 07:27:36;;;;;;;2.65;1.30;;;;;;;15.07;85.52;99792.41;3591115;39;20070;-68
2023/09/22 07:30:09;;;;;;;3.90;1.40;;;;;;;15.20;84.02;99792.06;3592423;39;20056;-69
2023/09/22 07:32:38;;;;;;;5.35;1.35;;;;;;;15.35;83.27;99794.25;3591249;39;20092;-69
2023/09/22 07:35:04;;;;;;;3.72;1.30;;;;;;;15.47;82.75;99799.31;3591733;39;20052;-69
2023/09/22 07:37:30;;;;;;;3.10;1.20;;;;;;;15.62;81.40;99810.50;3593258;39;20080;-69
2023/09/22 07:39:56;;;;;;;1.40;0.88;;;;;;;15.72;80.37;99818.59;3595032;39;20372;-68
2023/09/22 07:42:22;;;;;;;2.10;1.00;;;;;;;15.76;79.83;99812.72;3587644;39;20087;-69
2023/09/22 07:44:48;;;;;;;3.15;1.10;;;;;;;15.80;78.05;99805.16;3596984;39;20048;-69
2023/09/22 07:47:14;;;;;;;2.05;1.05;;;;;;;15.99;76.66;99826.69;3595403;39;20051;-68
2023/09/22 07:49:43;;;;;;;2.17;1.00;;;;;;;16.09;76.09;99833.88;3593761;39;20055;-68
2023/09/22 07:52:10;;;;;;;1.50;1.00;;;;;;;16.11;74.96;99834.56;3588106;39;20050;-68
2023/09/22 07:54:39;;;;;;;1.10;0.82;;;;;;;16.13;76.02;99827.13;3593221;39;20759;-67
2023/09/22 07:57:05;;;;;;;0.70;0.65;;;;;;;16.32;74.71;99840.53;3592247;39;20051;-68
2023/09/22 07:59:31;;;;;;;2.67;1.00;;;;;;;16.35;75.63;99840.22;3583066;39;20036;-68
2023/09/22 08:01:59;;;;;;;2.08;1.23;;;;;;;16.33;71.74;99825.09;3595236;39;20074;-67
2023/09/22 08:04:26;;;;;;;1.45;1.10;;;;;;;16.51;72.73;99849.50;3587849;39;20072;-68
2023/09/22 08:06:52;;;;;;;2.47;0.77;;;;;;;16.50;72.12;99850.53;3594607;39;20051;-68
2023/09/22 08:09:18;;;;;;;2.92;1.00;;;;;;;16.40;71.83;99826.22;3591781;39;20055;-69
2023/09/22 08:11:44;;;;;;;2.33;0.90;;;;;;;16.52;70.51;99856.63;3595943;39;20055;-66
2023/09/22 08:14:10;;;;;;;2.30;0.88;;;;;;;16.39;71.54;99821.78;3594223;39;20058;-69
2023/09/22 08:16:35;;;;;;;2.22;0.93;;;;;;;16.75;71.24;99855.16;3584447;39;20075;-68
2023/09/22 08:19:01;;;;;;;2.58;0.77;;;;;;;16.83;72.00;99840.78;3594725;39;20090;-67
2023/09/22 08:21:27;;;;;;;0.93;0.68;;;;;;;16.99;70.01;99835.47;3594844;39;20491;-67
2023/09/22 08:23:52;;;;;;;3.50;1.65;;;;;;;17.11;69.34;99861.34;3596420;39;20055;-68
2023/09/22 08:26:18;;;;;;;2.03;0.80;;;;;;;17.13;68.36;99856.59;3588890;39;20047;-68
2023/09/22 08:28:47;;;;;;;1.73;0.75;;;;;;;17.08;68.93;99868.94;3595647;39;20382;-67
2023/09/22 08:31:14;;;;;;;0.85;0.65;;;;;;;17.03;68.11;99850.44;3592418;39;20062;-66
2023/09/22 08:33:40;;;;;;;3.78;0.98;;;;;;;17.14;67.84;99863.72;3593363;39;20047;-66
2023/09/22 08:36:07;;;;;;;1.92;0.80;;;;;;;17.10;67.27;99873.22;3592368;39;20107;-67
2023/09/22 08:38:34;;;;;;;2.67;0.90;;;;;;;17.01;67.53;99870.59;3594938;39;20054;-67
2023/09/22 08:41:04;;;;;;;0.90;0.70;;;;;;;16.92;67.21;99865.13;3591951;39;20094;-68
2023/09/22 08:43:32;;;;;;;1.52;0.70;;;;;;;16.84;67.84;99875.06;3590643;39;20725;-66
2023/09/22 08:46:00;;;;;;;1.20;1.10;;;;;;;16.91;69.41;99878.88;3591007;39;20055;-67
2023/09/22 08:48:27;;;;;;;3.65;1.33;;;;;;;17.16;68.56;99863.59;3589036;39;20511;-67
2023/09/22 08:50:54;;;;;;;1.00;0.60;;;;;;;17.50;67.57;99865.44;3590802;39;20566;-67
2023/09/22 08:53:20;;;;;;;3.63;0.90;;;;;;;17.63;65.94;99871.25;3590200;39;20170;-67
2023/09/22 08:55:49;;;;;;;2.45;0.70;;;;;;;17.51;65.41;99850.84;3591904;39;20081;-66
2023/09/22 08:58:18;;;;;;;0.70;0.38;;;;;;;17.79;64.47;99865.06;3590775;39;20133;-66
2023/09/22 09:00:51;;;;;;;2.55;0.65;;;;;;;18.07;64.50;99877.38;3590190;39;21402;-67
2023/09/22 09:03:21;;;;;;;1.10;0.65;;;;;;;18.16;63.32;99880.97;3589348;39;20334;-67
2023/09/22 09:05:49;;;;;;;1.48;0.65;;;;;;;18.25;61.80;99879.13;3589620;39;20050;-68
2023/09/22 09:08:18;;;;;;;0.88;0.60;;;;;;;18.03;62.36;99839.81;3589698;39;20062;-65
2023/09/22 09:10:50;;;;;;;2.85;0.70;;;;;;;18.24;62.51;99877.44;3592356;39;20364;-67
2023/09/22 09:13:26;;;;;;;2.80;0.63;;;;;;;18.06;61.17;99889.28;3590477;39;20096;-66
2023/09/22 09:15:54;;;;;;;1.77;0.60;;;;;;;18.06;61.38;99888.44;3591601;39;20062;-68
2023/09/22 09:18:24;;;;;;;1.58;0.50;;;;;;;17.67;60.21;99833.75;3583293;39;20070;-66
2023/09/22 09:21:14;;;;;;;2.05;0.73;;;;;;;18.06;60.45;99894.72;3591456;39;20051;-66
2023/09/22 09:23:56;;;;;;;0.73;0.55;;;;;;;17.97;60.58;99905.75;3591767;39;20062;-67
2023/09/22 09:26:31;;;;;;;3.50;0.60;;;;;;;17.98;60.80;99891.13;3591713;39;20547;-67
2023/09/22 09:29:01;;;;;;;2.85;0.60;;;;;;;17.93;60.33;99893.50;3590825;39;20051;-66
2023/09/22 09:31:47;;;;;;;1.55;0.80;;;;;;;18.04;60.64;99901.34;3591191;39;20044;-66
2023/09/22 09:34:14;;;;;;;0.88;0.60;;;;;;;18.22;60.72;99872.13;3589843;39;20088;-66
2023/09/22 09:36:40;;;;;;;2.00;0.80;;;;;;;18.44;60.34;99897.00;3590774;39;20047;-67
2023/09/22 09:39:06;;;;;;;2.17;0.75;;;;;;;18.52;59.01;99910.59;3589834;39;20051;-67
2023/09/22 09:41:32;;;;;;;2.22;0.90;;;;;;;18.40;59.49;99890.19;3590947;39;20062;-66
2023/09/22 09:44:03;;;;;;;3.90;0.93;;;;;;;18.19;59.88;99839.81;3591041;39;20095;-66
2023/09/22 09:46:32;;;;;;;1.67;0.70;;;;;;;18.88;59.48;99902.16;3589529;39;20074;-66
2023/09/22 09:49:02;;;;;;;1.92;0.77;;;;;;;19.05;59.47;99892.09;3584447;39;20095;-68
2023/09/22 09:51:40;;;;;;;1.90;0.70;;;;;;;19.24;57.13;99900.72;3591005;39;20337;-66
2023/09/22 09:54:08;;;;;;;1.58;0.60;;;;;;;19.42;58.52;99907.84;3590572;39;20071;-66
2023/09/22 09:56:41;;;;;;;1.38;0.43;;;;;;;19.67;56.39;99901.31;3590547;39;20467;-66
2023/09/22 09:59:08;;;;;;;1.35;0.52;;;;;;;19.75;55.21;99907.75;3591742;39;20048;-67
2023/09/22 10:01:37;;;;;;;1.38;0.80;;;;;;;19.75;54.53;99888.66;3583080;39;20151;-67
2023/09/22 10:04:05;;;;;;;3.17;0.88;;;;;;;19.88;55.17;99897.97;3587221;39;20435;-68
2023/09/22 10:06:33;;;;;;;2.00;0.82;;;;;;;20.11;56.50;99900.78;3588239;39;20077;-68
2023/09/22 10:08:59;;;;;;;1.75;0.73;;;;;;;20.24;54.43;99897.44;3587885;39;20051;-68
2023/09/22 10:11:25;;;;;;;2.22;1.00;;;;;;;20.48;55.52;99903.75;3587434;39;20060;-69
2023/09/22 10:13:51;;;;;;;1.15;0.65;;;;;;;20.60;52.66;99899.59;3588600;39;20056;-69
2023/09/22 10:16:29;;;;;;;0.40;0.40;;;;;;;20.29;51.41;99864.16;3587246;39;20074;-67
2023/09/22 10:19:02;;;;;;;3.08;0.93;;;;;;;20.07;52.13;99855.75;3587654;39;20060;-67
2023/09/22 10:21:30;;;;;;;1.40;0.73;;;;;;;19.92;52.70;99833.88;3587032;39;20306;-69
2023/09/22 10:24:15;;;;;;;1.83;0.88;;;;;;;20.03;53.95;99898.06;3579240;39;20229;-69
2023/09/22 10:27:11;;;;;;;2.88;1.77;;;;;;;20.07;54.62;99895.84;3587785;39;20060;-68
2023/09/22 10:29:41;;;;;;;2.08;0.77;;;;;;;20.05;53.99;99873.34;3582470;39;20388;-69
2023/09/22 10:32:18;;;;;;;2.00;0.80;;;;;;;20.32;53.76;99891.06;3592260;39;20055;-67
2023/09/22 10:35:05;;;;;;;1.33;0.70;;;;;;;20.26;52.83;99867.22;3592329;39;20055;-68
2023/09/22 10:37:35;;;;;;;0.88;0.73;;;;;;;20.45;52.27;99891.31;3591229;39;20083;-69
2023/09/22 10:40:11;;;;;;;1.35;0.77;;;;;;;20.52;52.18;99894.19;3588756;39;20055;-68
2023/09/22 10:42:46;;;;;;;1.35;0.70;;;;;;;20.73;49.59;99896.25;3585786;39;20059;-68
2023/09/22 10:45:14;;;;;;;3.22;0.70;;;;;;;20.66;49.63;99900.78;3587179;39;20337;-66
2023/09/22 10:47:46;;;;;;;2.53;0.60;;;;;;;20.73;50.90;99899.00;3587899;39;20133;-68
2023/09/22 10:50:22;;;;;;;2.20;0.68;;;;;;;20.88;50.10;99902.63;3580293;39;20105;-68
2023/09/22 10:52:52;;;;;;;1.27;0.70;;;;;;;21.07;49.58;99887.59;3589671;39;20085;-68
2023/09/22 10:55:28;;;;;;;1.95;0.90;;;;;;;21.27;48.74;99874.22;3589368;39;20048;-68
2023/09/22 10:57:55;;;;;;;1.88;0.85;;;;;;;21.53;49.73;99882.84;3591502;39;20075;-67
2023/09/22 11:00:23;;;;;;;1.70;0.70;;;;;;;22.01;48.65;99886.00;3590921;39;20056;-68
2023/09/22 11:02:48;;;;;;;0.88;0.60;;;;;;;22.20;46.26;99894.66;3594147;39;20109;-68
2023/09/22 11:05:16;;;;;;;1.02;0.60;;;;;;;22.41;46.57;99886.47;3591758;39;20059;-68
2023/09/22 11:07:42;;;;;;;2.38;0.75;;;;;;;22.51;45.80;99871.59;3581950;39;20066;-68
2023/09/22 11:10:09;;;;;;;1.92;0.82;;;;;;;22.77;46.46;99880.06;3593804;39;20284;-68
2023/09/22 11:12:35;;;;;;;1.85;0.70;;;;;;;22.85;45.48;99890.88;3596173;39;20067;-68
2023/09/22 11:15:05;;;;;;;1.40;0.57;;;;;;;23.05;45.12;99888.31;3594283;39;20048;-66
2023/09/22 11:17:41;;;;;;;2.25;0.73;;;;;;;22.66;45.51;99850.47;3597564;39;20302;-66
2023/09/22 11:20:18;;;;;;;1.65;0.70;;;;;;;22.48;46.67;99897.47;3598708;39;20051;-67
2023/09/22 11:22:45;;;;;;;1.15;0.80;;;;;;;21.96;46.96;99904.03;3600943;39;20461;-67
2023/09/22 11:25:11;;;;;;;1.10;0.70;;;;;;;21.41;48.70;99895.31;3595233;39;20052;-67
2023/09/22 11:27:52;;;;;;;1.52;0.82;;;;;;;21.04;49.59;99905.19;3600143;39;20100;-67
2023/09/22 11:30:25;;;;;;;2.42;0.70;;;;;;;20.76;50.41;99906.81;3599889;39;20121;-67
2023/09/22 11:32:52;;;;;;;;;;;;;;;20.58;51.32;99899.81;3597452;39;20064;-67
2023/09/22 11:35:41;;;;;;;1.58;0.90;;;;;;;20.48;51.43;99903.75;3595047;39;20168;-67